Time;durP1;ratioP1;P1;durP2;ratioP2;P2;SDS_P1;SDS_P2;PMS_P1;PMS_P2;Temp;Humidity;BMP_temperature;BMP_pressure;BME280_temperature;BME280_humidity;BME280_pressure;Samples;Min_cycle;Max_cycle;Signal;HPM_P1;HPM_P2
2020/12/25 00:01:21;;;;;;;6.47;1.38;;;;;;;4.29;56.49;101227.19;4870968;29;20070;-78
2020/12/25 00:03:48;;;;;;;6.22;1.38;;;;;;;4.33;56.41;101226.50;4869131;29;20055;-77
2020/12/25 00:06:15;;;;;;;9.48;1.35;;;;;;;4.31;55.83;101232.44;4858321;29;20097;-79
2020/12/25 00:08:45;;;;;;;5.97;1.00;;;;;;;4.00;57.07;101243.16;4864169;29;20044;-79
2020/12/25 00:11:12;;;;;;;4.43;1.15;;;;;;;4.34;55.67;101245.50;4873037;29;20492;-77
2020/12/25 00:13:45;;;;;;;6.38;1.35;;;;;;;3.89;56.81;101254.72;4867853;29;20065;-77
2020/12/25 00:16:12;;;;;;;;;;;;;;;4.27;55.93;101246.03;4872381;29;20055;-80
2020/12/25 00:18:42;;;;;;;8.82;2.00;;;;;;;4.37;55.78;101248.19;4870199;29;20014;-79
2020/12/25 00:21:10;;;;;;;5.22;1.35;;;;;;;4.25;56.65;101256.34;4867163;29;20490;-79
2020/12/25 00:23:37;;;;;;;7.45;1.45;;;;;;;3.69;58.42;101256.44;4874830;29;20047;-79
2020/12/25 00:26:05;;;;;;;5.38;1.42;;;;;;;4.26;56.87;101263.28;4883993;29;20152;-80
2020/12/25 00:28:39;;;;;;;8.50;2.10;;;;;;;4.28;56.69;101258.16;4873344;29;20053;-82
2020/12/25 00:31:06;;;;;;;8.65;1.98;;;;;;;4.16;56.73;101268.00;4879518;29;20132;-79
2020/12/25 00:33:33;;;;;;;9.05;1.40;;;;;;;4.00;57.46;101276.78;4870230;29;20137;-81
2020/12/25 00:36:03;;;;;;;7.57;1.95;;;;;;;3.75;57.95;101263.56;4897612;29;20224;-79
2020/12/25 00:38:30;;;;;;;3.95;1.27;;;;;;;3.55;58.57;101269.56;4890322;29;20062;-82
2020/12/25 00:40:56;;;;;;;9.65;2.05;;;;;;;3.09;59.78;101262.25;4888783;29;20085;-79
2020/12/25 00:43:23;;;;;;;7.55;2.03;;;;;;;3.98;57.52;101269.78;4901130;29;20563;-81
2020/12/25 00:45:50;;;;;;;8.48;1.65;;;;;;;3.28;59.44;101266.56;4886313;29;20056;-82
2020/12/25 00:48:17;;;;;;;7.65;1.98;;;;;;;3.40;59.00;101268.03;4892840;29;20136;-77
2020/12/25 00:50:44;;;;;;;7.10;1.92;;;;;;;3.22;59.72;101268.84;4897323;29;20044;-78
2020/12/25 00:53:12;;;;;;;5.97;2.25;;;;;;;3.40;59.27;101269.75;4892976;29;20526;-76
2020/12/25 00:55:38;;;;;;;4.93;1.98;;;;;;;3.43;59.04;101273.34;4889307;29;20149;-81
2020/12/25 00:58:05;;;;;;;8.40;2.00;;;;;;;3.64;58.07;101262.22;4902142;29;20052;-77
2020/12/25 01:00:31;;;;;;;6.20;1.70;;;;;;;3.29;59.35;101274.41;4899142;29;20119;-77
2020/12/25 01:02:59;;;;;;;10.27;2.13;;;;;;;3.66;57.99;101276.97;4906185;29;20048;-78
2020/12/25 01:05:25;;;;;;;7.68;1.90;;;;;;;3.68;58.06;101265.00;4900841;29;20196;-79
2020/12/25 01:07:51;;;;;;;4.80;1.42;;;;;;;3.28;59.15;101272.63;4886093;29;20175;-78
2020/12/25 01:10:18;;;;;;;11.02;2.33;;;;;;;3.72;57.92;101272.09;4885400;29;20127;-79
2020/12/25 01:12:45;;;;;;;12.90;2.20;;;;;;;3.57;57.75;101267.91;4893647;29;20057;-78
2020/12/25 01:15:11;;;;;;;9.18;1.80;;;;;;;3.69;57.44;101265.91;4875007;29;20041;-79
2020/12/25 01:17:38;;;;;;;10.60;2.10;;;;;;;3.81;57.10;101264.75;4865167;29;20076;-80
2020/12/25 01:20:04;;;;;;;10.48;1.85;;;;;;;3.42;58.88;101266.41;4871001;29;20517;-80
2020/12/25 01:22:31;;;;;;;8.05;1.63;;;;;;;3.57;57.93;101273.09;4849459;29;20535;-79
2020/12/25 01:24:58;;;;;;;6.45;1.73;;;;;;;3.64;57.35;101262.22;4868405;29;20437;-78
2020/12/25 01:27:24;;;;;;;10.55;2.13;;;;;;;3.41;58.13;101261.16;4849909;29;20417;-80
2020/12/25 01:29:50;;;;;;;8.77;2.78;;;;;;;3.10;58.76;101251.09;4869924;29;20037;-80
2020/12/25 01:32:17;;;;;;;7.13;2.22;;;;;;;3.37;58.22;101264.41;4868541;29;20346;-80
2020/12/25 01:34:44;;;;;;;6.00;2.55;;;;;;;3.18;58.68;101261.78;4865166;29;20133;-81
2020/12/25 01:37:11;;;;;;;9.05;3.13;;;;;;;3.25;58.06;101257.00;4867207;29;20136;-80
2020/12/25 01:39:38;;;;;;;13.68;4.45;;;;;;;3.41;58.09;101258.56;4863839;29;20541;-83
2020/12/25 01:42:04;;;;;;;15.45;3.88;;;;;;;3.89;56.28;101254.72;4866689;29;20088;-83
2020/12/25 01:44:30;;;;;;;4.72;1.70;;;;;;;3.76;56.30;101255.00;4865546;29;20124;-79
2020/12/25 01:46:59;;;;;;;5.07;1.30;;;;;;;3.35;57.74;101256.63;4866821;29;20053;-79
2020/12/25 01:49:26;;;;;;;4.28;1.00;;;;;;;2.77;59.50;101262.41;4862008;29;20104;-79
2020/12/25 01:51:52;;;;;;;7.10;1.15;;;;;;;3.50;57.43;101271.94;4864356;29;20073;-80
2020/12/25 01:54:19;;;;;;;3.50;1.17;;;;;;;3.59;57.09;101271.47;4864208;29;20041;-80
2020/12/25 01:56:49;;;;;;;2.85;0.88;;;;;;;3.34;57.82;101274.63;4868581;29;20045;-78
2020/12/25 01:59:16;;;;;;;20.10;2.45;;;;;;;3.00;59.08;101287.63;4865456;29;20041;-80
2020/12/25 02:01:44;;;;;;;8.63;1.13;;;;;;;3.40;57.46;101293.88;4864567;29;20052;-79
2020/12/25 02:04:10;;;;;;;11.68;1.67;;;;;;;3.60;57.10;101292.19;4866558;29;20482;-79
2020/12/25 02:06:38;;;;;;;7.70;1.00;;;;;;;3.72;56.33;101290.19;4869854;29;20053;-79
2020/12/25 02:09:07;;;;;;;3.97;1.17;;;;;;;3.45;56.41;101289.78;4868188;29;20073;-81
2020/12/25 02:11:36;;;;;;;3.92;0.95;;;;;;;3.17;58.11;101283.25;4853118;29;20145;-80
2020/12/25 02:14:03;;;;;;;10.50;1.00;;;;;;;3.42;57.58;101281.00;4868552;29;20049;-79
2020/12/25 02:16:30;;;;;;;5.60;1.10;;;;;;;3.11;58.03;101267.47;4875004;29;20045;-79
2020/12/25 02:19:00;;;;;;;11.35;1.40;;;;;;;3.65;56.97;101274.31;4867287;29;20061;-80
2020/12/25 02:21:26;;;;;;;4.75;1.15;;;;;;;3.69;56.40;101258.16;4870713;29;20045;-79
2020/12/25 02:23:53;;;;;;;8.48;1.83;;;;;;;3.49;56.88;101262.41;4868574;29;20045;-80
2020/12/25 02:26:19;;;;;;;6.93;0.75;;;;;;;3.50;57.02;101265.03;4857093;29;20045;-79
2020/12/25 02:28:46;;;;;;;8.68;1.30;;;;;;;3.42;57.01;101266.41;4868591;29;20054;-78
2020/12/25 02:31:12;;;;;;;4.63;1.00;;;;;;;3.18;57.21;101260.09;4856075;29;20082;-79
2020/12/25 02:33:39;;;;;;;6.75;0.80;;;;;;;2.76;58.93;101268.38;4862684;29;20053;-79
2020/12/25 02:36:05;;;;;;;10.25;1.15;;;;;;;3.39;57.92;101265.38;4863852;29;20069;-78
2020/12/25 02:38:33;;;;;;;7.60;1.13;;;;;;;3.30;58.17;101265.84;4880167;29;20056;-79
2020/12/25 02:41:00;;;;;;;3.40;0.95;;;;;;;3.27;57.90;101255.34;4863526;29;20037;-79
2020/12/25 02:43:32;;;;;;;9.18;0.90;;;;;;;3.45;57.28;101260.50;4887692;29;20461;-79
2020/12/25 02:46:05;;;;;;;3.58;1.20;;;;;;;3.28;57.63;101256.25;4846956;29;20053;-77
2020/12/25 02:48:31;;;;;;;7.32;1.20;;;;;;;3.39;57.46;101255.03;4882931;29;20567;-77
2020/12/25 02:50:58;;;;;;;6.65;1.10;;;;;;;2.97;58.31;101241.03;4879638;29;20055;-78
2020/12/25 02:53:24;;;;;;;6.50;1.15;;;;;;;2.95;58.68;101248.69;4881735;29;20077;-78
2020/12/25 02:55:50;;;;;;;8.40;1.67;;;;;;;2.64;59.04;101246.31;4881342;29;20689;-79
2020/12/25 02:58:17;;;;;;;6.93;0.98;;;;;;;2.95;58.95;101246.09;4884856;29;20056;-79
2020/12/25 03:00:43;;;;;;;4.75;0.82;;;;;;;3.12;57.73;101246.88;4883749;29;20052;-79
2020/12/25 03:03:10;;;;;;;8.50;1.00;;;;;;;2.67;58.85;101265.34;4866465;29;20060;-79
2020/12/25 03:05:36;;;;;;;5.30;0.95;;;;;;;2.91;59.08;101264.84;4877538;29;20075;-78
2020/12/25 03:08:03;;;;;;;10.98;1.33;;;;;;;3.35;57.45;101274.69;4855737;29;20260;-79
2020/12/25 03:10:30;;;;;;;7.78;0.95;;;;;;;3.25;57.56;101272.50;4884092;29;20059;-80
2020/12/25 03:12:56;;;;;;;3.42;0.90;;;;;;;3.36;57.17;101267.81;4867717;29;20131;-79
2020/12/25 03:15:24;;;;;;;8.65;0.85;;;;;;;3.21;57.40;101269.69;4853165;29;20060;-79
2020/12/25 03:17:50;;;;;;;4.60;0.70;;;;;;;3.13;57.34;101265.84;4883474;29;20101;-79
2020/12/25 03:20:18;;;;;;;7.97;0.88;;;;;;;3.42;57.07;101274.16;4859837;29;20061;-78
2020/12/25 03:22:44;;;;;;;8.68;1.30;;;;;;;2.92;58.41;101274.34;4851036;29;20067;-77
2020/12/25 03:25:14;;;;;;;3.10;0.85;;;;;;;3.13;57.57;101271.91;4868756;29;20056;-77
2020/12/25 03:27:41;;;;;;;6.15;0.77;;;;;;;3.13;57.42;101274.47;4864774;29;20101;-77
2020/12/25 03:30:07;;;;;;;6.93;0.82;;;;;;;3.39;57.24;101281.78;4882724;29;20533;-78
2020/12/25 03:32:33;;;;;;;5.68;1.25;;;;;;;3.29;57.20;101281.25;4862972;29;20041;-78
2020/12/25 03:35:00;;;;;;;2.70;0.90;;;;;;;3.36;56.68;101270.38;4866187;29;20112;-78
2020/12/25 03:37:28;;;;;;;4.32;1.13;;;;;;;3.35;56.99;101274.69;4868128;29;20473;-78
2020/12/25 03:39:56;;;;;;;5.30;0.65;;;;;;;3.71;55.69;101269.41;4869223;29;20884;-77
2020/12/25 03:42:23;;;;;;;8.05;0.80;;;;;;;3.45;56.27;101265.66;4868713;29;20544;-78
2020/12/25 03:44:54;;;;;;;4.47;1.00;;;;;;;3.49;56.02;101260.72;4853222;29;20044;-78
2020/12/25 03:47:25;;;;;;;4.95;0.85;;;;;;;3.05;57.83;101258.63;4879095;29;20208;-78
2020/12/25 03:49:52;;;;;;;6.78;0.88;;;;;;;3.20;57.35;101260.16;4883459;29;20110;-78
2020/12/25 03:52:19;;;;;;;6.57;0.70;;;;;;;3.15;57.38;101264.22;4866301;29;20073;-78
2020/12/25 03:54:46;;;;;;;4.97;0.73;;;;;;;3.53;55.98;101263.44;4866371;29;20042;-79
2020/12/25 03:57:13;;;;;;;6.50;0.85;;;;;;;3.23;56.81;101262.88;4865762;29;20466;-78
2020/12/25 03:59:40;;;;;;;3.00;0.82;;;;;;;3.83;55.02;101267.41;4869828;29;20049;-78
2020/12/25 04:02:07;;;;;;;5.25;0.85;;;;;;;3.90;54.94;101264.25;4870217;29;20037;-78
2020/12/25 04:04:33;;;;;;;4.45;0.68;;;;;;;2.97;57.49;101257.38;4865441;29;20052;-78
2020/12/25 04:06:59;;;;;;;3.13;0.70;;;;;;;3.19;57.16;101255.81;4871642;29;20132;-78
2020/12/25 04:09:27;;;;;;;6.72;0.95;;;;;;;3.49;56.00;101265.00;4863435;29;20039;-78
2020/12/25 04:12:01;;;;;;;5.22;0.90;;;;;;;3.13;57.08;101268.44;4850695;29;20136;-79
2020/12/25 04:14:27;;;;;;;7.40;1.20;;;;;;;3.22;56.52;101269.75;4870806;29;20049;-78
2020/12/25 04:16:53;;;;;;;3.35;0.65;;;;;;;3.12;57.47;101266.69;4868480;29;20153;-78
2020/12/25 04:19:20;;;;;;;4.40;0.80;;;;;;;2.97;57.38;101272.00;4868152;29;20165;-78
2020/12/25 04:21:46;;;;;;;5.85;1.30;;;;;;;3.18;56.19;101267.84;4865910;29;20383;-78
2020/12/25 04:24:13;;;;;;;5.40;0.90;;;;;;;3.48;55.53;101279.59;4862177;29;20700;-78
2020/12/25 04:26:45;;;;;;;10.45;1.20;;;;;;;3.19;56.46;101285.09;4868491;29;20353;-78
2020/12/25 04:29:11;;;;;;;8.95;0.95;;;;;;;3.07;56.53;101284.50;4868641;29;20036;-78
2020/12/25 04:31:38;;;;;;;1.80;0.73;;;;;;;3.39;55.84;101286.03;4866528;29;20424;-78
2020/12/25 04:34:06;;;;;;;8.10;1.13;;;;;;;3.37;56.39;101285.06;4865039;29;20091;-79
2020/12/25 04:36:33;;;;;;;3.67;0.73;;;;;;;3.13;56.59;101294.25;4867538;29;20047;-79
2020/12/25 04:39:00;;;;;;;7.20;1.95;;;;;;;3.34;55.76;101298.75;4865848;29;20145;-79
2020/12/25 04:41:30;;;;;;;3.20;0.80;;;;;;;3.08;56.59;101294.91;4848413;29;20220;-78
2020/12/25 04:43:58;;;;;;;2.10;1.48;;;;;;;3.03;57.07;101300.66;4864090;29;20079;-78
2020/12/25 04:46:24;;;;;;;4.47;0.80;;;;;;;2.84;57.30;101293.72;4888956;29;20102;-78
2020/12/25 04:48:51;;;;;;;4.13;0.75;;;;;;;3.28;56.49;101288.13;4866334;29;20090;-79
2020/12/25 04:51:18;;;;;;;2.03;0.52;;;;;;;3.17;56.48;101291.88;4866367;29;20439;-78
2020/12/25 04:53:51;;;;;;;8.30;1.00;;;;;;;3.25;56.24;101302.59;4870246;29;20060;-78
2020/12/25 04:56:22;;;;;;;4.45;0.90;;;;;;;3.96;54.53;101313.66;4862857;29;20075;-79
2020/12/25 04:58:49;;;;;;;5.47;1.23;;;;;;;3.43;56.04;101306.03;4865012;29;20052;-79
2020/12/25 05:01:16;;;;;;;3.95;0.60;;;;;;;3.76;55.05;101310.16;4864625;29;20045;-78
2020/12/25 05:03:44;;;;;;;3.30;0.60;;;;;;;3.70;54.83;101304.72;4868933;29;20096;-78
2020/12/25 05:06:13;;;;;;;3.15;0.60;;;;;;;3.59;55.54;101318.88;4854102;29;20040;-78
2020/12/25 05:08:49;;;;;;;7.15;1.10;;;;;;;2.82;56.97;101320.28;4873506;29;20497;-79
2020/12/25 05:11:18;;;;;;;6.75;0.80;;;;;;;2.83;57.33;101322.06;4870783;29;20049;-78
2020/12/25 05:13:52;;;;;;;5.28;1.00;;;;;;;3.27;56.21;101321.59;4863569;29;20052;-78
2020/12/25 05:16:21;;;;;;;4.45;0.60;;;;;;;2.87;57.26;101314.53;4863136;29;20056;-78
2020/12/25 05:18:50;;;;;;;5.95;0.93;;;;;;;2.74;57.91;101321.56;4866905;29;20139;-78
2020/12/25 05:21:21;;;;;;;4.88;0.88;;;;;;;3.28;56.70;101313.94;4861214;29;20063;-78
2020/12/25 05:23:48;;;;;;;4.25;0.77;;;;;;;3.17;56.54;101306.47;4863813;29;20041;-79
2020/12/25 05:26:16;;;;;;;5.03;0.63;;;;;;;3.03;57.09;101308.41;4864687;29;20208;-78
2020/12/25 05:28:49;;;;;;;3.53;0.70;;;;;;;3.35;56.30;101303.09;4852685;29;20053;-79
2020/12/25 05:31:17;;;;;;;3.78;1.48;;;;;;;3.07;56.96;101300.88;4869978;29;20040;-78
2020/12/25 05:33:47;;;;;;;7.45;0.80;;;;;;;2.99;56.64;101294.47;4867476;29;20124;-79
2020/12/25 05:36:17;;;;;;;6.80;0.90;;;;;;;2.97;57.06;101298.66;4866042;29;20049;-79
2020/12/25 05:38:48;;;;;;;7.00;0.57;;;;;;;2.92;57.41;101292.44;4865237;29;20056;-79
2020/12/25 05:41:15;;;;;;;2.03;0.60;;;;;;;3.07;56.94;101284.50;4859788;29;20156;-78
2020/12/25 05:43:47;;;;;;;0.95;0.60;;;;;;;3.21;56.41;101290.34;4868507;29;20437;-79
2020/12/25 05:46:15;;;;;;;3.88;0.65;;;;;;;3.51;55.17;101290.06;4863802;29;20042;-78
2020/12/25 05:48:52;;;;;;;4.57;0.70;;;;;;;2.75;57.37;101297.56;4852147;29;20049;-78
2020/12/25 05:51:22;;;;;;;3.47;0.60;;;;;;;3.13;56.76;101297.72;4868611;29;20040;-79
2020/12/25 05:53:53;;;;;;;7.75;1.10;;;;;;;2.89;57.53;101302.59;4863685;29;20450;-79
2020/12/25 05:56:20;;;;;;;5.32;0.80;;;;;;;2.78;57.10;101297.72;4865565;29;20105;-78
2020/12/25 05:58:48;;;;;;;3.90;0.93;;;;;;;2.90;57.05;101301.78;4864477;29;20147;-78
2020/12/25 06:01:14;;;;;;;4.45;1.08;;;;;;;2.64;57.96;101300.47;4844614;29;20060;-78
2020/12/25 06:03:44;;;;;;;5.43;0.90;;;;;;;2.97;57.85;101297.81;4861055;29;20064;-78
2020/12/25 06:06:13;;;;;;;3.00;0.70;;;;;;;3.00;57.03;101298.84;4864322;29;20084;-77
2020/12/25 06:09:06;;;;;;;7.47;1.73;;;;;;;2.85;57.78;101302.34;4857080;29;20041;-77
2020/12/25 06:11:33;;;;;;;2.00;0.60;;;;;;;2.86;56.96;101296.41;4843282;29;20782;-79
2020/12/25 06:13:59;;;;;;;2.85;0.70;;;;;;;2.49;58.36;101301.44;4856914;29;20053;-78
2020/12/25 06:16:28;;;;;;;4.45;0.73;;;;;;;2.82;57.30;101291.91;4864110;29;20045;-79
2020/12/25 06:19:06;;;;;;;6.10;0.88;;;;;;;3.22;56.04;101292.97;4850478;29;20049;-79
2020/12/25 06:21:51;;;;;;;5.22;0.70;;;;;;;3.04;56.77;101297.28;4865522;29;20136;-80
2020/12/25 06:24:21;;;;;;;7.88;1.20;;;;;;;3.08;56.87;101296.59;4849045;29;20753;-78
2020/12/25 06:26:54;;;;;;;3.15;0.82;;;;;;;2.71;57.18;101296.53;4877333;29;20041;-79
2020/12/25 06:29:21;;;;;;;3.85;0.82;;;;;;;3.20;56.28;101297.22;4863728;29;20037;-79
2020/12/25 06:31:50;;;;;;;3.83;0.82;;;;;;;2.61;58.33;101284.84;4846527;29;20072;-80
2020/12/25 06:34:19;;;;;;;6.15;0.80;;;;;;;2.65;57.84;101285.88;4849779;29;20041;-80
2020/12/25 06:36:48;;;;;;;3.92;0.63;;;;;;;2.38;58.57;101288.00;4868191;29;20059;-80
2020/12/25 06:39:21;;;;;;;4.50;1.00;;;;;;;2.62;58.23;101289.22;4868832;29;20160;-78
2020/12/25 06:41:48;;;;;;;8.85;0.90;;;;;;;2.41;58.65;101287.25;4870208;29;20109;-79
2020/12/25 06:44:16;;;;;;;3.30;0.70;;;;;;;2.94;57.23;101287.31;4847903;29;20040;-79
2020/12/25 06:46:51;;;;;;;2.25;0.77;;;;;;;2.76;57.22;101287.31;4863988;29;20385;-79
2020/12/25 06:49:21;;;;;;;2.58;0.90;;;;;;;3.06;56.62;101295.66;4851292;29;20483;-79
2020/12/25 06:51:51;;;;;;;10.98;1.58;;;;;;;2.89;56.79;101294.84;4849069;29;20116;-79
2020/12/25 06:54:22;;;;;;;4.45;1.20;;;;;;;2.64;57.77;101286.69;4861894;29;20109;-78
2020/12/25 06:56:54;;;;;;;8.70;1.15;;;;;;;2.74;57.45;101294.09;4864591;29;20057;-79
2020/12/25 06:59:23;;;;;;;3.88;0.82;;;;;;;2.98;56.45;101296.97;4879553;29;20136;-78
2020/12/25 07:01:52;;;;;;;3.50;1.00;;;;;;;2.82;57.75;101295.38;4869059;29;20064;-78
2020/12/25 07:04:32;;;;;;;8.52;1.20;;;;;;;2.83;57.57;101291.09;4866144;29;20414;-77
2020/12/25 07:07:06;;;;;;;3.65;1.00;;;;;;;2.56;58.24;101285.44;4868474;29;20584;-79
2020/12/25 07:09:38;;;;;;;5.72;0.75;;;;;;;2.72;57.61;101284.50;4865899;29;20119;-79
2020/12/25 07:12:14;;;;;;;1.40;0.60;;;;;;;3.01;56.73;101298.03;4866446;29;20536;-78
2020/12/25 07:14:40;;;;;;;6.68;1.10;;;;;;;2.95;56.82;101292.56;4871643;29;20469;-78
2020/12/25 07:17:13;;;;;;;2.45;0.70;;;;;;;2.64;56.82;101287.59;4868618;29;20056;-79
2020/12/25 07:19:39;;;;;;;2.47;0.60;;;;;;;2.58;57.76;101282.16;4865162;29;20045;-79
2020/12/25 07:22:07;;;;;;;4.60;0.95;;;;;;;3.23;56.03;101281.84;4867868;29;20049;-79
2020/12/25 07:24:41;;;;;;;5.75;1.60;;;;;;;3.21;55.83;101287.78;4863943;29;20041;-79
2020/12/25 07:27:08;;;;;;;4.93;0.75;;;;;;;3.28;55.45;101290.69;4865144;29;20049;-78
2020/12/25 07:29:35;;;;;;;5.47;0.80;;;;;;;3.02;55.58;101275.69;4869400;29;20421;-79
2020/12/25 07:32:02;;;;;;;2.63;0.50;;;;;;;3.07;56.17;101271.59;4866181;29;20056;-79
2020/12/25 07:34:28;;;;;;;1.88;0.68;;;;;;;3.41;55.21;101274.06;4864640;29;20535;-78
2020/12/25 07:36:57;;;;;;;1.90;0.68;;;;;;;3.37;55.45;101272.16;4866916;29;20049;-79
2020/12/25 07:39:27;;;;;;;2.22;0.60;;;;;;;3.27;55.39;101277.69;4868055;29;20557;-79
2020/12/25 07:41:54;;;;;;;7.60;1.15;;;;;;;3.18;55.72;101279.84;4882317;29;20059;-79
2020/12/25 07:44:22;;;;;;;3.85;0.68;;;;;;;3.23;55.68;101284.44;4868425;29;20040;-78
2020/12/25 07:46:49;;;;;;;3.67;0.60;;;;;;;3.29;55.68;101283.84;4865739;29;20053;-78
2020/12/25 07:49:16;;;;;;;4.07;0.85;;;;;;;3.04;56.09;101279.19;4871163;29;20072;-78
2020/12/25 07:51:43;;;;;;;3.78;0.50;;;;;;;2.96;56.66;101284.00;4864937;29;20041;-79
2020/12/25 07:54:10;;;;;;;6.22;0.75;;;;;;;3.37;55.37;101275.63;4849664;29;20141;-78
2020/12/25 07:56:37;;;;;;;1.45;0.60;;;;;;;3.40;54.91;101270.63;4862199;29;20045;-78
2020/12/25 07:59:04;;;;;;;3.10;0.60;;;;;;;3.65;54.33;101282.06;4864655;29;20049;-78
2020/12/25 08:01:32;;;;;;;4.68;0.70;;;;;;;3.01;55.39;101287.72;4871599;29;20049;-77
2020/12/25 08:04:01;;;;;;;8.60;1.13;;;;;;;3.25;55.23;101272.50;4866292;29;20029;-79
2020/12/25 08:06:29;;;;;;;4.82;0.60;;;;;;;3.00;55.88;101269.56;4866824;29;20113;-79
2020/12/25 08:09:08;;;;;;;2.28;0.55;;;;;;;3.25;55.34;101276.78;4867714;29;20158;-78
2020/12/25 08:11:37;;;;;;;4.65;1.55;;;;;;;3.28;54.87;101270.03;4857726;29;20593;-78
2020/12/25 08:14:09;;;;;;;1.85;0.60;;;;;;;3.46;54.33;101272.59;4862393;29;20494;-79
2020/12/25 08:16:38;;;;;;;3.25;0.90;;;;;;;3.35;55.00;101273.81;4870098;29;20053;-79
2020/12/25 08:19:06;;;;;;;3.95;0.65;;;;;;;3.47;54.59;101276.94;4866098;29;20053;-77
2020/12/25 08:21:38;;;;;;;2.05;0.57;;;;;;;3.72;54.23;101282.41;4863284;29;20052;-78
2020/12/25 08:24:06;;;;;;;4.30;0.82;;;;;;;3.63;53.85;101276.84;4864129;29;20045;-78
2020/12/25 08:26:35;;;;;;;2.15;0.65;;;;;;;4.07;52.97;101283.13;4862113;29;20057;-79
2020/12/25 08:29:02;;;;;;;3.00;0.60;;;;;;;3.78;53.66;101277.53;4869262;29;20048;-79
2020/12/25 08:31:38;;;;;;;3.42;0.50;;;;;;;3.48;55.27;101284.78;4866199;29;20077;-78
2020/12/25 08:34:13;;;;;;;5.65;0.73;;;;;;;3.29;54.71;101289.00;4863363;29;20078;-80
2020/12/25 08:36:41;;;;;;;3.33;0.50;;;;;;;3.39;54.78;101298.97;4868824;29;20113;-78
2020/12/25 08:39:09;;;;;;;1.63;0.57;;;;;;;3.10;55.63;101292.41;4866550;29;20144;-77
2020/12/25 08:41:41;;;;;;;3.42;0.70;;;;;;;3.13;55.63;101289.97;4866135;29;20154;-80
2020/12/25 08:44:10;;;;;;;0.57;0.30;;;;;;;3.79;53.68;101301.69;4863780;29;20089;-79
2020/12/25 08:46:38;;;;;;;2.47;0.45;;;;;;;3.60;53.99;101299.94;4850085;29;20052;-79
2020/12/25 08:49:07;;;;;;;1.65;0.52;;;;;;;3.88;53.46;101299.50;4865447;29;21347;-78
2020/12/25 08:51:46;;;;;;;4.03;0.70;;;;;;;3.76;54.11;101305.00;4871175;29;20072;-80
2020/12/25 08:54:26;;;;;;;7.90;0.73;;;;;;;3.83;53.31;101293.25;4863355;29;20450;-78
2020/12/25 08:56:53;;;;;;;4.55;0.93;;;;;;;3.92;52.77;101289.38;4878262;29;20052;-79
2020/12/25 08:59:20;;;;;;;3.92;1.10;;;;;;;3.97;52.66;101292.16;4868757;29;20132;-79
2020/12/25 09:01:49;;;;;;;1.33;0.40;;;;;;;4.62;51.19;101295.00;4869686;29;20060;-79
2020/12/25 09:04:19;;;;;;;5.80;0.80;;;;;;;4.12;52.11;101289.38;4863466;29;20052;-81
2020/12/25 09:06:49;;;;;;;2.10;0.68;;;;;;;3.96;53.15;101287.81;4870753;29;20065;-79
2020/12/25 09:09:27;;;;;;;2.97;1.10;;;;;;;4.28;52.53;101294.38;4863382;29;22163;-80
2020/12/25 09:11:53;;;;;;;3.80;0.60;;;;;;;4.51;52.26;101288.47;4868315;29;20045;-79
2020/12/25 09:14:20;;;;;;;1.67;0.60;;;;;;;4.98;50.88;101282.69;4869829;29;20704;-79
2020/12/25 09:16:47;;;;;;;3.28;0.70;;;;;;;5.72;49.04;101284.69;4863803;29;20330;-80
2020/12/25 09:19:14;;;;;;;4.05;0.68;;;;;;;6.51;46.86;101282.41;4862645;29;20048;-80
2020/12/25 09:21:40;;;;;;;3.00;0.65;;;;;;;6.58;46.00;101280.06;4852402;29;20047;-79
2020/12/25 09:24:07;;;;;;;3.50;0.80;;;;;;;6.74;45.24;101276.28;4848499;29;20080;-79
2020/12/25 09:26:34;;;;;;;4.45;1.35;;;;;;;7.26;44.74;101278.81;4868215;29;20624;-79
2020/12/25 09:29:00;;;;;;;2.22;0.70;;;;;;;6.56;45.10;101279.16;4868537;29;20131;-78
2020/12/25 09:31:27;;;;;;;3.83;1.13;;;;;;;6.84;45.89;101280.06;4866426;29;20151;-79
2020/12/25 09:33:57;;;;;;;3.63;0.98;;;;;;;7.24;44.41;101279.63;4872826;29;20041;-79
2020/12/25 09:36:25;;;;;;;2.72;0.75;;;;;;;7.79;42.98;101279.56;4859649;29;20497;-79
2020/12/25 09:38:51;;;;;;;3.70;0.90;;;;;;;7.44;44.08;101284.59;4864994;29;20160;-80
2020/12/25 09:41:18;;;;;;;4.13;0.98;;;;;;;7.40;44.14;101282.72;4869363;29;20044;-79
2020/12/25 09:43:44;;;;;;;4.43;0.80;;;;;;;7.57;43.29;101283.25;4868773;29;20052;-79
2020/12/25 09:46:10;;;;;;;2.17;0.88;;;;;;;7.68;43.21;101275.75;4856641;29;20057;-79
2020/12/25 09:48:37;;;;;;;8.25;1.02;;;;;;;8.27;41.63;101290.47;4864687;29;20045;-79
2020/12/25 09:51:05;;;;;;;2.40;0.85;;;;;;;8.47;41.53;101280.63;4860701;29;20149;-78
2020/12/25 09:53:32;;;;;;;3.58;1.20;;;;;;;7.56;43.02;101276.28;4867713;29;20047;-78
2020/12/25 09:55:59;;;;;;;6.15;1.67;;;;;;;8.17;41.72;101278.03;4852040;29;20056;-78
2020/12/25 09:58:25;;;;;;;1.30;0.80;;;;;;;8.07;42.78;101276.91;4864632;29;20072;-78
2020/12/25 10:00:53;;;;;;;3.47;1.20;;;;;;;8.09;42.09;101274.34;4871558;29;20053;-79
2020/12/25 10:03:20;;;;;;;3.35;1.23;;;;;;;8.16;42.07;101274.53;4865496;29;20849;-80
2020/12/25 10:05:46;;;;;;;5.78;1.02;;;;;;;8.04;42.27;101268.13;4865102;29;20128;-78
2020/12/25 10:08:13;;;;;;;2.78;0.80;;;;;;;8.22;41.68;101266.03;4865153;29;20128;-80
2020/12/25 10:10:39;;;;;;;5.13;1.23;;;;;;;7.62;43.71;101283.38;4866420;29;20053;-79
2020/12/25 10:13:07;;;;;;;3.75;1.40;;;;;;;7.23;43.96;101290.84;4866463;29;20049;-79
2020/12/25 10:15:35;;;;;;;5.22;1.10;;;;;;;7.96;43.49;101291.31;4868783;29;20049;-78
2020/12/25 10:18:02;;;;;;;3.55;1.27;;;;;;;7.85;42.59;101293.63;4867532;29;20116;-78
2020/12/25 10:20:29;;;;;;;2.92;1.20;;;;;;;7.64;43.66;101290.38;4875237;29;20156;-77
2020/12/25 10:22:56;;;;;;;1.73;0.80;;;;;;;8.05;42.60;101291.59;4877257;29;20058;-78
2020/12/25 10:25:22;;;;;;;3.10;1.17;;;;;;;8.96;41.47;101295.78;4871559;29;20060;-78
2020/12/25 10:27:54;;;;;;;2.90;1.15;;;;;;;9.69;39.67;101285.28;4884137;29;21484;-78
2020/12/25 10:30:20;;;;;;;4.20;0.95;;;;;;;9.88;38.98;101286.59;4873198;29;20552;-79
2020/12/25 10:32:48;;;;;;;3.50;1.23;;;;;;;9.85;38.74;101279.56;4857531;29;20052;-79
2020/12/25 10:35:15;;;;;;;2.63;0.90;;;;;;;9.69;38.93;101272.25;4871478;29;20137;-78
2020/12/25 10:37:41;;;;;;;4.45;0.90;;;;;;;9.40;39.47;101281.19;4858469;29;20056;-79
2020/12/25 10:40:27;;;;;;;3.28;0.93;;;;;;;9.00;40.18;101274.16;4877517;29;20350;-79
2020/12/25 10:42:53;;;;;;;3.75;0.95;;;;;;;9.17;39.82;101272.81;4873681;29;20230;-79
2020/12/25 10:45:20;;;;;;;2.53;1.00;;;;;;;9.26;40.08;101266.94;4853061;29;20121;-78
2020/12/25 10:47:47;;;;;;;4.20;2.00;;;;;;;8.99;40.95;101268.06;4858345;29;20049;-77
2020/12/25 10:50:13;;;;;;;2.65;1.02;;;;;;;9.25;39.22;101254.75;4867038;29;20046;-78
2020/12/25 10:52:40;;;;;;;2.75;0.85;;;;;;;10.07;37.76;101258.25;4867452;29;20128;-79
2020/12/25 10:55:09;;;;;;;4.53;1.00;;;;;;;9.07;39.48;101256.06;4868818;29;20524;-78
2020/12/25 10:57:37;;;;;;;4.75;0.88;;;;;;;9.39;39.38;101256.84;4875184;29;20084;-81
2020/12/25 11:00:05;;;;;;;3.92;1.17;;;;;;;9.79;38.62;101260.28;4874099;29;20067;-79
2020/12/25 11:02:33;;;;;;;2.55;0.85;;;;;;;9.96;38.44;101256.28;4870422;29;20073;-78
2020/12/25 11:05:00;;;;;;;2.13;0.60;;;;;;;9.78;38.04;101264.63;4869069;29;20513;-79
2020/12/25 11:07:26;;;;;;;2.10;0.60;;;;;;;10.64;36.62;101252.38;4847364;29;20594;-78
2020/12/25 11:09:54;;;;;;;1.00;0.70;;;;;;;10.56;36.55;101243.50;4865728;29;20504;-78
2020/12/25 11:12:20;;;;;;;2.00;0.85;;;;;;;10.99;36.06;101245.09;4871378;29;20139;-78
2020/12/25 11:14:47;;;;;;;2.08;0.90;;;;;;;10.86;36.39;101237.91;4868842;29;20501;-78
2020/12/25 11:17:15;;;;;;;3.50;0.93;;;;;;;11.23;35.97;101244.59;4871937;29;20041;-79
2020/12/25 11:19:43;;;;;;;5.05;0.95;;;;;;;11.62;35.05;101253.00;4883565;29;20053;-81
2020/12/25 11:22:15;;;;;;;3.10;0.93;;;;;;;11.58;35.00;101243.34;4872949;29;20078;-80
2020/12/25 11:24:42;;;;;;;1.98;0.63;;;;;;;11.83;35.60;101248.94;4873977;29;20080;-82
2020/12/25 11:27:10;;;;;;;2.75;0.70;;;;;;;12.35;34.28;101242.53;4874606;29;20553;-80
2020/12/25 11:29:36;;;;;;;2.28;0.77;;;;;;;12.82;32.56;101230.72;4867801;29;20159;-78
2020/12/25 11:32:03;;;;;;;3.35;0.90;;;;;;;12.55;33.48;101220.03;4872987;29;20049;-77
2020/12/25 11:34:30;;;;;;;8.52;0.63;;;;;;;13.17;31.54;101225.78;4873522;29;20826;-77
2020/12/25 11:36:57;;;;;;;2.67;0.70;;;;;;;13.07;32.51;101218.69;4869996;29;20129;-77